sensor_id;sensor_type;location;lat;lon;timestamp;P1;durP1;ratioP1;P2;durP2;ratioP2
22894;SDS011;11614;52.494;6.976;2024-02-16T00:00:15;3.53;;;1.37;;
22894;SDS011;11614;52.494;6.976;2024-02-16T00:02:44;4.87;;;2.40;;
22894;SDS011;11614;52.494;6.976;2024-02-16T00:05:11;4.83;;;1.97;;
22894;SDS011;11614;52.494;6.976;2024-02-16T00:07:37;3.87;;;1.90;;
22894;SDS011;11614;52.494;6.976;2024-02-16T00:10:04;3.07;;;1.77;;
22894;SDS011;11614;52.494;6.976;2024-02-16T00:12:30;5.77;;;2.00;;
22894;SDS011;11614;52.494;6.976;2024-02-16T00:14:59;3.17;;;1.60;;
22894;SDS011;11614;52.494;6.976;2024-02-16T00:17:25;3.93;;;1.60;;
22894;SDS011;11614;52.494;6.976;2024-02-16T00:19:55;5.13;;;1.97;;
22894;SDS011;11614;52.494;6.976;2024-02-16T00:22:22;4.97;;;2.10;;
22894;SDS011;11614;52.494;6.976;2024-02-16T00:24:48;2.87;;;1.17;;
22894;SDS011;11614;52.494;6.976;2024-02-16T00:27:14;4.53;;;1.80;;
22894;SDS011;11614;52.494;6.976;2024-02-16T00:29:40;2.97;;;1.70;;
22894;SDS011;11614;52.494;6.976;2024-02-16T00:32:07;4.20;;;1.90;;
22894;SDS011;11614;52.494;6.976;2024-02-16T00:34:33;4.07;;;1.73;;
22894;SDS011;11614;52.494;6.976;2024-02-16T00:37:00;3.30;;;1.67;;
22894;SDS011;11614;52.494;6.976;2024-02-16T00:39:26;4.83;;;2.07;;
22894;SDS011;11614;52.494;6.976;2024-02-16T00:41:52;3.73;;;2.00;;
22894;SDS011;11614;52.494;6.976;2024-02-16T00:44:18;3.17;;;1.90;;
22894;SDS011;11614;52.494;6.976;2024-02-16T00:46:44;3.17;;;1.90;;
22894;SDS011;11614;52.494;6.976;2024-02-16T00:49:10;5.50;;;1.87;;
22894;SDS011;11614;52.494;6.976;2024-02-16T00:51:39;5.73;;;2.20;;
22894;SDS011;11614;52.494;6.976;2024-02-16T00:54:06;3.60;;;1.60;;
22894;SDS011;11614;52.494;6.976;2024-02-16T00:56:32;4.07;;;1.67;;
22894;SDS011;11614;52.494;6.976;2024-02-16T00:58:58;3.97;;;1.83;;
22894;SDS011;11614;52.494;6.976;2024-02-16T01:01:24;4.00;;;2.10;;
22894;SDS011;11614;52.494;6.976;2024-02-16T01:03:51;3.50;;;2.37;;
22894;SDS011;11614;52.494;6.976;2024-02-16T01:06:17;3.17;;;1.67;;
22894;SDS011;11614;52.494;6.976;2024-02-16T01:08:43;6.60;;;2.30;;
22894;SDS011;11614;52.494;6.976;2024-02-16T01:11:10;4.57;;;1.90;;
22894;SDS011;11614;52.494;6.976;2024-02-16T01:13:36;4.20;;;2.13;;
22894;SDS011;11614;52.494;6.976;2024-02-16T01:16:02;5.47;;;2.70;;
22894;SDS011;11614;52.494;6.976;2024-02-16T01:18:29;3.97;;;2.40;;
22894;SDS011;11614;52.494;6.976;2024-02-16T01:20:55;4.17;;;2.40;;
22894;SDS011;11614;52.494;6.976;2024-02-16T01:23:21;3.30;;;1.80;;
22894;SDS011;11614;52.494;6.976;2024-02-16T01:25:47;4.27;;;1.90;;
22894;SDS011;11614;52.494;6.976;2024-02-16T01:28:13;5.73;;;2.20;;
22894;SDS011;11614;52.494;6.976;2024-02-16T01:30:40;4.50;;;2.27;;
22894;SDS011;11614;52.494;6.976;2024-02-16T01:33:06;4.93;;;2.27;;
22894;SDS011;11614;52.494;6.976;2024-02-16T01:35:32;5.40;;;2.90;;
22894;SDS011;11614;52.494;6.976;2024-02-16T01:37:58;3.60;;;2.50;;
22894;SDS011;11614;52.494;6.976;2024-02-16T01:40:26;4.40;;;2.13;;
22894;SDS011;11614;52.494;6.976;2024-02-16T01:42:52;4.13;;;2.53;;
22894;SDS011;11614;52.494;6.976;2024-02-16T01:45:18;4.17;;;2.17;;
22894;SDS011;11614;52.494;6.976;2024-02-16T01:47:45;5.43;;;2.50;;
22894;SDS011;11614;52.494;6.976;2024-02-16T01:50:12;5.20;;;2.00;;
22894;SDS011;11614;52.494;6.976;2024-02-16T01:52:40;5.13;;;2.37;;
22894;SDS011;11614;52.494;6.976;2024-02-16T01:55:06;4.23;;;1.97;;
22894;SDS011;11614;52.494;6.976;2024-02-16T01:57:35;3.90;;;1.97;;
22894;SDS011;11614;52.494;6.976;2024-02-16T02:00:02;3.77;;;2.00;;
22894;SDS011;11614;52.494;6.976;2024-02-16T02:02:28;3.87;;;2.10;;
22894;SDS011;11614;52.494;6.976;2024-02-16T02:04:54;3.63;;;2.07;;
22894;SDS011;11614;52.494;6.976;2024-02-16T02:07:24;5.57;;;2.20;;
22894;SDS011;11614;52.494;6.976;2024-02-16T02:09:51;2.97;;;1.80;;
22894;SDS011;11614;52.494;6.976;2024-02-16T02:12:17;3.97;;;2.30;;
22894;SDS011;11614;52.494;6.976;2024-02-16T02:14:43;3.33;;;1.83;;
22894;SDS011;11614;52.494;6.976;2024-02-16T02:17:09;2.23;;;1.47;;
22894;SDS011;11614;52.494;6.976;2024-02-16T02:19:35;3.83;;;1.90;;
22894;SDS011;11614;52.494;6.976;2024-02-16T02:22:01;7.63;;;2.00;;
22894;SDS011;11614;52.494;6.976;2024-02-16T02:24:27;2.77;;;1.80;;
22894;SDS011;11614;52.494;6.976;2024-02-16T02:26:53;3.00;;;1.73;;
22894;SDS011;11614;52.494;6.976;2024-02-16T02:29:19;4.00;;;1.33;;
22894;SDS011;11614;52.494;6.976;2024-02-16T02:31:46;4.47;;;1.90;;
22894;SDS011;11614;52.494;6.976;2024-02-16T02:34:11;2.40;;;1.27;;
22894;SDS011;11614;52.494;6.976;2024-02-16T02:36:39;2.60;;;1.53;;
22894;SDS011;11614;52.494;6.976;2024-02-16T02:39:05;3.43;;;1.60;;
22894;SDS011;11614;52.494;6.976;2024-02-16T02:41:31;3.07;;;1.50;;
22894;SDS011;11614;52.494;6.976;2024-02-16T02:43:57;2.93;;;1.60;;
22894;SDS011;11614;52.494;6.976;2024-02-16T02:46:23;2.67;;;1.80;;
22894;SDS011;11614;52.494;6.976;2024-02-16T02:48:49;5.30;;;2.10;;
22894;SDS011;11614;52.494;6.976;2024-02-16T02:51:16;2.30;;;1.40;;
22894;SDS011;11614;52.494;6.976;2024-02-16T02:53:42;2.73;;;1.53;;
22894;SDS011;11614;52.494;6.976;2024-02-16T02:56:08;2.80;;;1.50;;
22894;SDS011;11614;52.494;6.976;2024-02-16T02:58:34;4.10;;;1.70;;
22894;SDS011;11614;52.494;6.976;2024-02-16T03:01:00;3.93;;;1.90;;
22894;SDS011;11614;52.494;6.976;2024-02-16T03:03:26;3.67;;;1.90;;
22894;SDS011;11614;52.494;6.976;2024-02-16T03:05:54;2.97;;;1.60;;
22894;SDS011;11614;52.494;6.976;2024-02-16T03:08:20;3.27;;;1.90;;
22894;SDS011;11614;52.494;6.976;2024-02-16T03:10:46;3.37;;;1.70;;
22894;SDS011;11614;52.494;6.976;2024-02-16T03:13:12;3.70;;;1.90;;
22894;SDS011;11614;52.494;6.976;2024-02-16T03:15:39;3.83;;;1.60;;
22894;SDS011;11614;52.494;6.976;2024-02-16T03:18:05;3.50;;;1.67;;
22894;SDS011;11614;52.494;6.976;2024-02-16T03:20:33;4.10;;;1.60;;
22894;SDS011;11614;52.494;6.976;2024-02-16T03:22:59;4.57;;;2.10;;
22894;SDS011;11614;52.494;6.976;2024-02-16T03:25:25;3.30;;;1.90;;
22894;SDS011;11614;52.494;6.976;2024-02-16T03:27:51;4.10;;;1.50;;
22894;SDS011;11614;52.494;6.976;2024-02-16T03:30:21;4.97;;;1.80;;
22894;SDS011;11614;52.494;6.976;2024-02-16T03:32:50;2.83;;;1.60;;
22894;SDS011;11614;52.494;6.976;2024-02-16T03:35:17;3.43;;;1.50;;
22894;SDS011;11614;52.494;6.976;2024-02-16T03:37:43;3.00;;;1.43;;
22894;SDS011;11614;52.494;6.976;2024-02-16T03:40:09;4.70;;;1.83;;
22894;SDS011;11614;52.494;6.976;2024-02-16T03:42:37;6.67;;;1.67;;
22894;SDS011;11614;52.494;6.976;2024-02-16T03:45:03;3.23;;;1.60;;
22894;SDS011;11614;52.494;6.976;2024-02-16T03:47:29;2.50;;;1.60;;
22894;SDS011;11614;52.494;6.976;2024-02-16T03:49:55;2.63;;;1.43;;
22894;SDS011;11614;52.494;6.976;2024-02-16T03:52:21;3.20;;;1.50;;
22894;SDS011;11614;52.494;6.976;2024-02-16T03:54:47;3.50;;;1.60;;
22894;SDS011;11614;52.494;6.976;2024-02-16T03:57:14;4.10;;;1.80;;
22894;SDS011;11614;52.494;6.976;2024-02-16T03:59:42;2.70;;;1.30;;
22894;SDS011;11614;52.494;6.976;2024-02-16T04:02:08;5.63;;;2.00;;
22894;SDS011;11614;52.494;6.976;2024-02-16T04:04:35;4.90;;;1.60;;
22894;SDS011;11614;52.494;6.976;2024-02-16T04:07:01;4.50;;;1.70;;
22894;SDS011;11614;52.494;6.976;2024-02-16T04:09:27;3.17;;;1.60;;
22894;SDS011;11614;52.494;6.976;2024-02-16T04:11:52;4.23;;;1.70;;
22894;SDS011;11614;52.494;6.976;2024-02-16T04:14:18;2.80;;;1.40;;
22894;SDS011;11614;52.494;6.976;2024-02-16T04:16:44;2.97;;;1.57;;
22894;SDS011;11614;52.494;6.976;2024-02-16T04:19:10;6.23;;;2.37;;
22894;SDS011;11614;52.494;6.976;2024-02-16T04:21:36;9.87;;;6.23;;
22894;SDS011;11614;52.494;6.976;2024-02-16T04:24:02;5.77;;;4.03;;
22894;SDS011;11614;52.494;6.976;2024-02-16T04:26:28;7.50;;;4.13;;
22894;SDS011;11614;52.494;6.976;2024-02-16T04:28:54;4.93;;;2.33;;
22894;SDS011;11614;52.494;6.976;2024-02-16T04:31:20;5.37;;;2.40;;
22894;SDS011;11614;52.494;6.976;2024-02-16T04:33:46;3.87;;;2.40;;
22894;SDS011;11614;52.494;6.976;2024-02-16T04:36:12;4.93;;;2.53;;
22894;SDS011;11614;52.494;6.976;2024-02-16T04:38:40;5.63;;;1.93;;
22894;SDS011;11614;52.494;6.976;2024-02-16T04:41:06;5.27;;;1.67;;
22894;SDS011;11614;52.494;6.976;2024-02-16T04:43:33;2.87;;;1.87;;
22894;SDS011;11614;52.494;6.976;2024-02-16T04:45:59;6.63;;;4.20;;
22894;SDS011;11614;52.494;6.976;2024-02-16T04:48:25;6.20;;;4.43;;
22894;SDS011;11614;52.494;6.976;2024-02-16T04:50:51;7.00;;;4.10;;
22894;SDS011;11614;52.494;6.976;2024-02-16T04:53:17;5.50;;;4.17;;
22894;SDS011;11614;52.494;6.976;2024-02-16T04:55:43;5.70;;;2.93;;
22894;SDS011;11614;52.494;6.976;2024-02-16T04:58:09;4.50;;;2.07;;
22894;SDS011;11614;52.494;6.976;2024-02-16T05:00:37;5.17;;;2.43;;
22894;SDS011;11614;52.494;6.976;2024-02-16T05:03:04;4.50;;;2.67;;
22894;SDS011;11614;52.494;6.976;2024-02-16T05:05:30;5.57;;;2.80;;
22894;SDS011;11614;52.494;6.976;2024-02-16T05:07:56;6.27;;;2.50;;
22894;SDS011;11614;52.494;6.976;2024-02-16T05:10:22;3.27;;;2.10;;
22894;SDS011;11614;52.494;6.976;2024-02-16T05:12:48;3.07;;;1.67;;
22894;SDS011;11614;52.494;6.976;2024-02-16T05:15:14;3.37;;;2.20;;
22894;SDS011;11614;52.494;6.976;2024-02-16T05:17:42;3.00;;;1.70;;
22894;SDS011;11614;52.494;6.976;2024-02-16T05:20:11;3.67;;;1.73;;
22894;SDS011;11614;52.494;6.976;2024-02-16T05:22:46;5.80;;;2.13;;
22894;SDS011;11614;52.494;6.976;2024-02-16T05:25:14;3.77;;;2.17;;
22894;SDS011;11614;52.494;6.976;2024-02-16T05:27:40;2.63;;;1.67;;
22894;SDS011;11614;52.494;6.976;2024-02-16T05:30:08;4.57;;;1.80;;
22894;SDS011;11614;52.494;6.976;2024-02-16T05:32:35;5.07;;;2.10;;
22894;SDS011;11614;52.494;6.976;2024-02-16T05:35:02;5.27;;;2.23;;
22894;SDS011;11614;52.494;6.976;2024-02-16T05:37:36;4.90;;;2.23;;
22894;SDS011;11614;52.494;6.976;2024-02-16T05:40:02;3.40;;;1.87;;
22894;SDS011;11614;52.494;6.976;2024-02-16T05:42:45;3.67;;;2.37;;
22894;SDS011;11614;52.494;6.976;2024-02-16T05:45:11;3.93;;;1.97;;
22894;SDS011;11614;52.494;6.976;2024-02-16T05:47:37;2.67;;;1.60;;
22894;SDS011;11614;52.494;6.976;2024-02-16T05:50:06;3.47;;;1.77;;
22894;SDS011;11614;52.494;6.976;2024-02-16T05:52:32;3.23;;;1.80;;
22894;SDS011;11614;52.494;6.976;2024-02-16T05:54:59;3.27;;;1.80;;
22894;SDS011;11614;52.494;6.976;2024-02-16T05:57:25;2.83;;;2.03;;
22894;SDS011;11614;52.494;6.976;2024-02-16T05:59:51;4.87;;;1.90;;
22894;SDS011;11614;52.494;6.976;2024-02-16T06:02:17;3.43;;;1.83;;
22894;SDS011;11614;52.494;6.976;2024-02-16T06:04:43;3.17;;;2.00;;
22894;SDS011;11614;52.494;6.976;2024-02-16T06:07:09;6.90;;;1.67;;
22894;SDS011;11614;52.494;6.976;2024-02-16T06:09:36;3.57;;;1.50;;
22894;SDS011;11614;52.494;6.976;2024-02-16T06:12:05;4.67;;;2.17;;
22894;SDS011;11614;52.494;6.976;2024-02-16T06:14:32;3.70;;;1.63;;
22894;SDS011;11614;52.494;6.976;2024-02-16T06:16:58;3.60;;;1.53;;
22894;SDS011;11614;52.494;6.976;2024-02-16T06:19:25;6.17;;;2.23;;
22894;SDS011;11614;52.494;6.976;2024-02-16T06:21:52;2.97;;;1.60;;
22894;SDS011;11614;52.494;6.976;2024-02-16T06:24:19;3.00;;;1.90;;
22894;SDS011;11614;52.494;6.976;2024-02-16T06:26:45;2.43;;;1.57;;
22894;SDS011;11614;52.494;6.976;2024-02-16T06:29:11;5.83;;;1.77;;
22894;SDS011;11614;52.494;6.976;2024-02-16T06:31:38;2.33;;;1.60;;
22894;SDS011;11614;52.494;6.976;2024-02-16T06:34:04;10.77;;;2.53;;
22894;SDS011;11614;52.494;6.976;2024-02-16T06:36:30;4.33;;;1.93;;
22894;SDS011;11614;52.494;6.976;2024-02-16T06:38:56;3.93;;;1.70;;
22894;SDS011;11614;52.494;6.976;2024-02-16T06:41:22;3.00;;;1.63;;
22894;SDS011;11614;52.494;6.976;2024-02-16T06:43:48;4.63;;;1.23;;
22894;SDS011;11614;52.494;6.976;2024-02-16T06:46:14;3.87;;;1.90;;
22894;SDS011;11614;52.494;6.976;2024-02-16T06:48:40;4.03;;;2.00;;
22894;SDS011;11614;52.494;6.976;2024-02-16T06:51:07;3.60;;;1.53;;
22894;SDS011;11614;52.494;6.976;2024-02-16T06:53:33;5.30;;;1.97;;
22894;SDS011;11614;52.494;6.976;2024-02-16T06:55:58;2.83;;;1.50;;
22894;SDS011;11614;52.494;6.976;2024-02-16T06:58:24;3.27;;;1.87;;
22894;SDS011;11614;52.494;6.976;2024-02-16T07:00:50;5.97;;;2.03;;
22894;SDS011;11614;52.494;6.976;2024-02-16T07:03:16;1.90;;;1.30;;
22894;SDS011;11614;52.494;6.976;2024-02-16T07:05:43;2.33;;;1.30;;
22894;SDS011;11614;52.494;6.976;2024-02-16T07:08:09;3.20;;;1.70;;
22894;SDS011;11614;52.494;6.976;2024-02-16T07:10:35;3.10;;;1.80;;
22894;SDS011;11614;52.494;6.976;2024-02-16T07:13:01;2.47;;;1.50;;
22894;SDS011;11614;52.494;6.976;2024-02-16T07:15:28;2.23;;;1.53;;
22894;SDS011;11614;52.494;6.976;2024-02-16T07:17:54;3.50;;;1.63;;
22894;SDS011;11614;52.494;6.976;2024-02-16T07:20:22;3.33;;;1.70;;
22894;SDS011;11614;52.494;6.976;2024-02-16T07:22:48;4.20;;;2.00;;
22894;SDS011;11614;52.494;6.976;2024-02-16T07:25:16;3.60;;;1.83;;
22894;SDS011;11614;52.494;6.976;2024-02-16T07:27:42;5.17;;;2.43;;
22894;SDS011;11614;52.494;6.976;2024-02-16T07:30:08;5.47;;;2.33;;
22894;SDS011;11614;52.494;6.976;2024-02-16T07:32:36;2.23;;;1.00;;
22894;SDS011;11614;52.494;6.976;2024-02-16T07:35:02;1.83;;;1.10;;
22894;SDS011;11614;52.494;6.976;2024-02-16T07:37:28;4.60;;;2.10;;
22894;SDS011;11614;52.494;6.976;2024-02-16T07:39:55;4.17;;;1.30;;
22894;SDS011;11614;52.494;6.976;2024-02-16T07:42:21;2.33;;;1.33;;
22894;SDS011;11614;52.494;6.976;2024-02-16T07:44:47;2.63;;;1.73;;
22894;SDS011;11614;52.494;6.976;2024-02-16T07:47:13;3.63;;;2.17;;
22894;SDS011;11614;52.494;6.976;2024-02-16T07:49:39;2.57;;;1.23;;
22894;SDS011;11614;52.494;6.976;2024-02-16T07:52:05;3.03;;;1.80;;
22894;SDS011;11614;52.494;6.976;2024-02-16T07:54:31;3.67;;;2.17;;
22894;SDS011;11614;52.494;6.976;2024-02-16T07:56:57;5.53;;;2.23;;
22894;SDS011;11614;52.494;6.976;2024-02-16T07:59:24;5.37;;;2.00;;
22894;SDS011;11614;52.494;6.976;2024-02-16T08:01:50;2.77;;;1.63;;
22894;SDS011;11614;52.494;6.976;2024-02-16T08:04:16;4.57;;;2.37;;
22894;SDS011;11614;52.494;6.976;2024-02-16T08:06:42;4.07;;;1.67;;
22894;SDS011;11614;52.494;6.976;2024-02-16T08:09:08;4.17;;;1.83;;
22894;SDS011;11614;52.494;6.976;2024-02-16T08:11:35;6.57;;;2.43;;
22894;SDS011;11614;52.494;6.976;2024-02-16T08:14:01;4.97;;;2.30;;
22894;SDS011;11614;52.494;6.976;2024-02-16T08:16:28;1.60;;;1.20;;
22894;SDS011;11614;52.494;6.976;2024-02-16T08:18:54;5.00;;;2.93;;
22894;SDS011;11614;52.494;6.976;2024-02-16T08:21:20;3.53;;;1.80;;
22894;SDS011;11614;52.494;6.976;2024-02-16T08:23:46;4.63;;;2.07;;
22894;SDS011;11614;52.494;6.976;2024-02-16T08:26:12;3.97;;;2.60;;
22894;SDS011;11614;52.494;6.976;2024-02-16T08:28:38;5.43;;;1.63;;
22894;SDS011;11614;52.494;6.976;2024-02-16T08:31:04;3.67;;;2.07;;
22894;SDS011;11614;52.494;6.976;2024-02-16T08:33:31;6.33;;;2.70;;
22894;SDS011;11614;52.494;6.976;2024-02-16T08:36:01;3.97;;;2.60;;
22894;SDS011;11614;52.494;6.976;2024-02-16T08:38:27;4.10;;;1.80;;
22894;SDS011;11614;52.494;6.976;2024-02-16T08:40:53;7.27;;;1.90;;
22894;SDS011;11614;52.494;6.976;2024-02-16T08:43:19;4.47;;;2.03;;
22894;SDS011;11614;52.494;6.976;2024-02-16T08:45:45;3.63;;;1.77;;
22894;SDS011;11614;52.494;6.976;2024-02-16T08:48:11;3.37;;;2.37;;
22894;SDS011;11614;52.494;6.976;2024-02-16T08:50:37;4.40;;;2.00;;
22894;SDS011;11614;52.494;6.976;2024-02-16T08:53:03;6.00;;;3.00;;
22894;SDS011;11614;52.494;6.976;2024-02-16T08:55:29;2.87;;;1.43;;
22894;SDS011;11614;52.494;6.976;2024-02-16T08:57:56;3.43;;;1.97;;
22894;SDS011;11614;52.494;6.976;2024-02-16T09:00:22;6.70;;;2.40;;
22894;SDS011;11614;52.494;6.976;2024-02-16T09:02:51;7.10;;;2.53;;
22894;SDS011;11614;52.494;6.976;2024-02-16T09:05:18;4.07;;;2.43;;
22894;SDS011;11614;52.494;6.976;2024-02-16T09:07:44;4.10;;;2.00;;
22894;SDS011;11614;52.494;6.976;2024-02-16T09:10:12;2.47;;;1.93;;
22894;SDS011;11614;52.494;6.976;2024-02-16T09:12:39;4.53;;;1.73;;
22894;SDS011;11614;52.494;6.976;2024-02-16T09:15:05;4.13;;;1.77;;
22894;SDS011;11614;52.494;6.976;2024-02-16T09:17:31;5.63;;;2.27;;
22894;SDS011;11614;52.494;6.976;2024-02-16T09:19:57;4.87;;;2.47;;
22894;SDS011;11614;52.494;6.976;2024-02-16T09:22:23;5.13;;;2.40;;
22894;SDS011;11614;52.494;6.976;2024-02-16T09:24:50;3.43;;;1.80;;
22894;SDS011;11614;52.494;6.976;2024-02-16T09:27:16;3.30;;;2.27;;
22894;SDS011;11614;52.494;6.976;2024-02-16T09:29:42;5.13;;;2.17;;
22894;SDS011;11614;52.494;6.976;2024-02-16T09:32:08;3.87;;;2.57;;
22894;SDS011;11614;52.494;6.976;2024-02-16T09:34:34;3.47;;;2.50;;
22894;SDS011;11614;52.494;6.976;2024-02-16T09:37:00;1.37;;;0.97;;
22894;SDS011;11614;52.494;6.976;2024-02-16T09:39:26;2.67;;;1.80;;
22894;SDS011;11614;52.494;6.976;2024-02-16T09:41:53;4.20;;;2.60;;
22894;SDS011;11614;52.494;6.976;2024-02-16T09:44:20;4.33;;;2.10;;
22894;SDS011;11614;52.494;6.976;2024-02-16T09:46:46;3.70;;;2.00;;
22894;SDS011;11614;52.494;6.976;2024-02-16T09:49:12;3.73;;;2.30;;
22894;SDS011;11614;52.494;6.976;2024-02-16T09:51:38;6.50;;;2.40;;
22894;SDS011;11614;52.494;6.976;2024-02-16T09:54:04;5.40;;;2.00;;
22894;SDS011;11614;52.494;6.976;2024-02-16T09:56:32;5.17;;;2.17;;
22894;SDS011;11614;52.494;6.976;2024-02-16T09:58:58;4.60;;;2.37;;
22894;SDS011;11614;52.494;6.976;2024-02-16T10:01:25;4.13;;;2.70;;
22894;SDS011;11614;52.494;6.976;2024-02-16T10:03:53;5.20;;;2.77;;
22894;SDS011;11614;52.494;6.976;2024-02-16T10:06:19;9.67;;;2.50;;
22894;SDS011;11614;52.494;6.976;2024-02-16T10:08:48;3.47;;;2.87;;
22894;SDS011;11614;52.494;6.976;2024-02-16T10:11:15;3.37;;;2.30;;
22894;SDS011;11614;52.494;6.976;2024-02-16T10:13:41;4.87;;;3.03;;
22894;SDS011;11614;52.494;6.976;2024-02-16T10:16:08;5.27;;;2.73;;
22894;SDS011;11614;52.494;6.976;2024-02-16T10:18:37;4.97;;;2.20;;
22894;SDS011;11614;52.494;6.976;2024-02-16T10:21:04;5.40;;;2.20;;
22894;SDS011;11614;52.494;6.976;2024-02-16T10:23:30;4.07;;;2.30;;
22894;SDS011;11614;52.494;6.976;2024-02-16T10:25:57;5.00;;;2.50;;
22894;SDS011;11614;52.494;6.976;2024-02-16T10:28:27;4.17;;;2.60;;
22894;SDS011;11614;52.494;6.976;2024-02-16T10:30:59;5.00;;;3.10;;
22894;SDS011;11614;52.494;6.976;2024-02-16T10:33:29;5.00;;;3.27;;
22894;SDS011;11614;52.494;6.976;2024-02-16T10:35:57;5.47;;;3.00;;
22894;SDS011;11614;52.494;6.976;2024-02-16T10:38:25;4.57;;;2.77;;
22894;SDS011;11614;52.494;6.976;2024-02-16T10:40:54;4.37;;;2.13;;
22894;SDS011;11614;52.494;6.976;2024-02-16T10:43:22;5.80;;;3.13;;
22894;SDS011;11614;52.494;6.976;2024-02-16T10:45:48;8.03;;;2.80;;
22894;SDS011;11614;52.494;6.976;2024-02-16T10:48:17;5.13;;;2.60;;
22894;SDS011;11614;52.494;6.976;2024-02-16T10:50:43;4.40;;;3.27;;
22894;SDS011;11614;52.494;6.976;2024-02-16T10:55:48;4.13;;;2.77;;
22894;SDS011;11614;52.494;6.976;2024-02-16T10:58:14;4.33;;;2.57;;
22894;SDS011;11614;52.494;6.976;2024-02-16T11:00:49;3.93;;;2.37;;
22894;SDS011;11614;52.494;6.976;2024-02-16T11:03:16;4.43;;;2.63;;
22894;SDS011;11614;52.494;6.976;2024-02-16T11:05:43;7.70;;;2.77;;
22894;SDS011;11614;52.494;6.976;2024-02-16T11:08:12;6.43;;;3.67;;
22894;SDS011;11614;52.494;6.976;2024-02-16T11:10:39;5.97;;;3.90;;
22894;SDS011;11614;52.494;6.976;2024-02-16T11:13:05;5.07;;;2.40;;
22894;SDS011;11614;52.494;6.976;2024-02-16T11:15:31;3.90;;;2.43;;
22894;SDS011;11614;52.494;6.976;2024-02-16T11:17:59;6.97;;;3.27;;
22894;SDS011;11614;52.494;6.976;2024-02-16T11:20:26;5.37;;;3.90;;
22894;SDS011;11614;52.494;6.976;2024-02-16T11:22:52;7.57;;;3.27;;
22894;SDS011;11614;52.494;6.976;2024-02-16T11:25:18;5.03;;;3.20;;
22894;SDS011;11614;52.494;6.976;2024-02-16T11:27:46;4.27;;;1.80;;
22894;SDS011;11614;52.494;6.976;2024-02-16T11:30:13;6.67;;;3.17;;
22894;SDS011;11614;52.494;6.976;2024-02-16T11:32:38;4.17;;;2.67;;
22894;SDS011;11614;52.494;6.976;2024-02-16T11:35:08;4.90;;;3.67;;
22894;SDS011;11614;52.494;6.976;2024-02-16T11:37:34;5.47;;;3.23;;
22894;SDS011;11614;52.494;6.976;2024-02-16T11:40:00;6.00;;;4.23;;
22894;SDS011;11614;52.494;6.976;2024-02-16T11:42:26;5.73;;;3.43;;
22894;SDS011;11614;52.494;6.976;2024-02-16T11:44:52;4.93;;;3.50;;
22894;SDS011;11614;52.494;6.976;2024-02-16T11:47:19;8.90;;;4.23;;
22894;SDS011;11614;52.494;6.976;2024-02-16T11:49:50;4.43;;;3.33;;
22894;SDS011;11614;52.494;6.976;2024-02-16T11:52:24;6.30;;;4.03;;
22894;SDS011;11614;52.494;6.976;2024-02-16T11:54:50;4.93;;;3.50;;
22894;SDS011;11614;52.494;6.976;2024-02-16T11:57:16;5.60;;;3.80;;
22894;SDS011;11614;52.494;6.976;2024-02-16T11:59:42;7.73;;;4.77;;
22894;SDS011;11614;52.494;6.976;2024-02-16T12:02:16;5.77;;;3.27;;
22894;SDS011;11614;52.494;6.976;2024-02-16T12:04:44;7.53;;;3.80;;
22894;SDS011;11614;52.494;6.976;2024-02-16T12:07:12;7.70;;;4.77;;
22894;SDS011;11614;52.494;6.976;2024-02-16T12:09:39;9.57;;;5.90;;
22894;SDS011;11614;52.494;6.976;2024-02-16T12:12:05;5.67;;;4.13;;
22894;SDS011;11614;52.494;6.976;2024-02-16T12:14:31;7.03;;;4.70;;
22894;SDS011;11614;52.494;6.976;2024-02-16T12:16:58;7.57;;;4.07;;
22894;SDS011;11614;52.494;6.976;2024-02-16T12:19:24;7.53;;;5.07;;
22894;SDS011;11614;52.494;6.976;2024-02-16T12:21:51;10.53;;;3.70;;
22894;SDS011;11614;52.494;6.976;2024-02-16T12:24:20;10.27;;;5.83;;
22894;SDS011;11614;52.494;6.976;2024-02-16T12:26:46;8.93;;;5.37;;
22894;SDS011;11614;52.494;6.976;2024-02-16T12:29:13;10.67;;;7.27;;
22894;SDS011;11614;52.494;6.976;2024-02-16T12:31:39;11.93;;;5.97;;
22894;SDS011;11614;52.494;6.976;2024-02-16T12:34:06;9.97;;;6.50;;
22894;SDS011;11614;52.494;6.976;2024-02-16T12:36:34;11.00;;;7.30;;
22894;SDS011;11614;52.494;6.976;2024-02-16T12:39:00;10.70;;;6.53;;
22894;SDS011;11614;52.494;6.976;2024-02-16T12:41:27;11.07;;;7.50;;
22894;SDS011;11614;52.494;6.976;2024-02-16T12:43:54;12.33;;;7.23;;
22894;SDS011;11614;52.494;6.976;2024-02-16T12:46:20;15.03;;;7.87;;
22894;SDS011;11614;52.494;6.976;2024-02-16T12:48:46;15.47;;;8.30;;
22894;SDS011;11614;52.494;6.976;2024-02-16T12:51:12;14.47;;;8.00;;
22894;SDS011;11614;52.494;6.976;2024-02-16T12:53:39;14.23;;;9.70;;
22894;SDS011;11614;52.494;6.976;2024-02-16T12:56:08;12.80;;;7.03;;
22894;SDS011;11614;52.494;6.976;2024-02-16T12:58:35;11.00;;;7.33;;
22894;SDS011;11614;52.494;6.976;2024-02-16T13:01:01;9.53;;;5.73;;
22894;SDS011;11614;52.494;6.976;2024-02-16T13:03:27;11.43;;;7.17;;
22894;SDS011;11614;52.494;6.976;2024-02-16T13:05:53;11.60;;;6.60;;
22894;SDS011;11614;52.494;6.976;2024-02-16T13:08:19;11.57;;;7.53;;
22894;SDS011;11614;52.494;6.976;2024-02-16T13:10:45;16.70;;;10.43;;
22894;SDS011;11614;52.494;6.976;2024-02-16T13:13:11;11.13;;;6.67;;
22894;SDS011;11614;52.494;6.976;2024-02-16T13:15:37;14.80;;;9.80;;
22894;SDS011;11614;52.494;6.976;2024-02-16T13:18:03;10.30;;;5.77;;
22894;SDS011;11614;52.494;6.976;2024-02-16T13:20:29;10.17;;;6.70;;
22894;SDS011;11614;52.494;6.976;2024-02-16T13:22:55;12.73;;;8.60;;
22894;SDS011;11614;52.494;6.976;2024-02-16T13:25:21;10.03;;;6.93;;
22894;SDS011;11614;52.494;6.976;2024-02-16T13:27:47;14.37;;;10.67;;
22894;SDS011;11614;52.494;6.976;2024-02-16T13:30:13;12.17;;;8.47;;
22894;SDS011;11614;52.494;6.976;2024-02-16T13:32:39;9.23;;;5.83;;
22894;SDS011;11614;52.494;6.976;2024-02-16T13:35:06;49.07;;;24.23;;
22894;SDS011;11614;52.494;6.976;2024-02-16T13:37:32;86.93;;;42.53;;
22894;SDS011;11614;52.494;6.976;2024-02-16T13:39:58;13.07;;;7.93;;
22894;SDS011;11614;52.494;6.976;2024-02-16T13:42:24;13.73;;;9.33;;
22894;SDS011;11614;52.494;6.976;2024-02-16T13:44:51;11.60;;;8.00;;
22894;SDS011;11614;52.494;6.976;2024-02-16T13:47:17;11.93;;;8.33;;
22894;SDS011;11614;52.494;6.976;2024-02-16T13:49:43;13.03;;;8.40;;
22894;SDS011;11614;52.494;6.976;2024-02-16T13:52:09;7.43;;;4.67;;
22894;SDS011;11614;52.494;6.976;2024-02-16T13:54:35;12.80;;;7.47;;
22894;SDS011;11614;52.494;6.976;2024-02-16T13:57:01;11.53;;;7.77;;
22894;SDS011;11614;52.494;6.976;2024-02-16T13:59:27;11.93;;;7.43;;
22894;SDS011;11614;52.494;6.976;2024-02-16T14:01:54;10.17;;;7.83;;
22894;SDS011;11614;52.494;6.976;2024-02-16T14:04:22;9.67;;;6.37;;
22894;SDS011;11614;52.494;6.976;2024-02-16T14:06:49;10.23;;;6.50;;
22894;SDS011;11614;52.494;6.976;2024-02-16T14:09:15;9.40;;;7.00;;
22894;SDS011;11614;52.494;6.976;2024-02-16T14:11:41;8.50;;;4.27;;
22894;SDS011;11614;52.494;6.976;2024-02-16T14:14:07;7.87;;;4.40;;
22894;SDS011;11614;52.494;6.976;2024-02-16T14:16:33;8.00;;;5.37;;
22894;SDS011;11614;52.494;6.976;2024-02-16T14:18:59;8.13;;;4.73;;
22894;SDS011;11614;52.494;6.976;2024-02-16T14:21:25;6.87;;;5.27;;
22894;SDS011;11614;52.494;6.976;2024-02-16T14:23:51;7.47;;;5.03;;
22894;SDS011;11614;52.494;6.976;2024-02-16T14:26:17;4.40;;;2.83;;
22894;SDS011;11614;52.494;6.976;2024-02-16T14:28:44;6.33;;;3.87;;
22894;SDS011;11614;52.494;6.976;2024-02-16T14:31:10;7.30;;;4.93;;
22894;SDS011;11614;52.494;6.976;2024-02-16T14:33:39;4.80;;;3.23;;
22894;SDS011;11614;52.494;6.976;2024-02-16T14:36:05;3.63;;;2.60;;
22894;SDS011;11614;52.494;6.976;2024-02-16T14:38:34;6.27;;;3.93;;
22894;SDS011;11614;52.494;6.976;2024-02-16T14:41:00;2.83;;;1.90;;
22894;SDS011;11614;52.494;6.976;2024-02-16T14:43:29;3.97;;;1.80;;